Time;durP1;ratioP1;P1;durP2;ratioP2;P2;SDS_P1;SDS_P2;PMS_P1;PMS_P2;Temp;Humidity;BMP_temperature;BMP_pressure;BME280_temperature;BME280_humidity;BME280_pressure;Samples;Min_cycle;Max_cycle;Signal;HPM_P1;HPM_P2
2023/04/27 00:01:43;;;;;;;10.68;7.38;;;6.70;31.70;;;;;;5058390;28;20025;-71
2023/04/27 00:04:09;;;;;;;10.07;6.60;;;6.80;31.30;;;;;;5041015;28;20056;-71
2023/04/27 00:06:35;;;;;;;9.48;6.97;;;6.80;29.70;;;;;;5058266;28;20032;-70
2023/04/27 00:09:01;;;;;;;9.52;6.38;;;6.70;33.20;;;;;;5057525;28;20126;-70
2023/04/27 00:11:26;;;;;;;8.15;5.88;;;6.60;34.30;;;;;;5057500;28;20296;-71
2023/04/27 00:13:52;;;;;;;9.45;6.45;;;6.60;35.00;;;;;;5057253;28;20128;-70
2023/04/27 00:16:18;;;;;;;12.45;6.70;;;6.60;37.80;;;;;;5058189;28;20059;-70
2023/04/27 00:18:44;;;;;;;12.68;6.80;;;6.60;39.80;;;;;;5057293;28;20032;-71
2023/04/27 00:21:10;;;;;;;11.18;7.30;;;6.50;38.90;;;;;;5040830;28;20094;-71
2023/04/27 00:23:36;;;;;;;11.00;7.03;;;6.50;39.10;;;;;;5057992;28;20025;-72
2023/04/27 00:26:02;;;;;;;10.13;6.78;;;6.40;40.50;;;;;;5057160;28;20033;-71
2023/04/27 00:28:27;;;;;;;10.60;7.20;;;6.40;41.30;;;;;;5057259;28;20047;-70
2023/04/27 00:30:53;;;;;;;10.25;6.63;;;6.50;40.80;;;;;;5040507;28;20408;-70
2023/04/27 00:33:20;;;;;;;11.75;6.80;;;6.40;41.50;;;;;;5040250;28;20091;-71
2023/04/27 00:35:46;;;;;;;13.95;6.88;;;6.40;39.20;;;;;;5057140;28;20029;-70
2023/04/27 00:38:13;;;;;;;10.80;6.95;;;6.30;40.30;;;;;;5057245;28;20442;-70
2023/04/27 00:40:39;;;;;;;10.93;7.13;;;6.30;46.80;;;;;;5024009;28;20041;-70
2023/04/27 00:43:05;;;;;;;10.45;7.57;;;6.40;44.30;;;;;;5040295;28;20059;-70
2023/04/27 00:45:31;;;;;;;11.27;7.82;;;6.50;39.20;;;;;;5057501;28;20033;-71
2023/04/27 00:47:58;;;;;;;10.48;6.72;;;6.50;40.20;;;;;;5056706;28;20088;-71
2023/04/27 00:50:30;;;;;;;10.23;6.72;;;6.40;41.40;;;;;;5056775;28;20032;-70
2023/04/27 00:52:56;;;;;;;9.60;6.72;;;6.30;42.90;;;;;;5057564;28;20032;-70
2023/04/27 00:55:23;;;;;;;10.48;6.90;;;6.20;43.90;;;;;;5057500;28;20108;-71
2023/04/27 00:57:49;;;;;;;10.15;7.15;;;6.10;48.20;;;;;;5057306;28;20036;-71
2023/04/27 01:00:15;;;;;;;13.18;7.43;;;6.10;51.30;;;;;;5057904;28;20387;-70
2023/04/27 01:02:41;;;;;;;9.45;6.93;;;6.10;52.10;;;;;;5056384;28;20123;-71
2023/04/27 01:05:09;;;;;;;12.32;7.50;;;6.10;51.10;;;;;;5056573;28;20037;-70
2023/04/27 01:07:41;;;;;;;11.88;6.95;;;6.10;52.50;;;;;;5056306;28;20033;-70
2023/04/27 01:10:07;;;;;;;9.60;7.05;;;6.20;52.00;;;;;;5057044;28;20268;-69
2023/04/27 01:12:34;;;;;;;13.23;7.25;;;6.20;50.10;;;;;;5057490;28;20024;-70
2023/04/27 01:15:05;;;;;;;9.85;6.95;;;6.10;49.80;;;;;;5008126;28;20029;-69
2023/04/27 01:17:31;;;;;;;10.60;6.82;;;6.00;53.70;;;;;;5039826;28;20068;-70
2023/04/27 01:19:59;;;;;;;11.25;7.75;;;5.90;55.70;;;;;;5056310;28;20497;-70
2023/04/27 01:22:25;;;;;;;10.85;7.90;;;5.90;55.00;;;;;;5056562;28;20033;-69
2023/04/27 01:24:52;;;;;;;12.00;7.70;;;5.80;52.90;;;;;;5056328;28;20056;-70
2023/04/27 01:27:18;;;;;;;9.98;7.75;;;5.80;58.80;;;;;;5056921;28;20380;-70
2023/04/27 01:29:44;;;;;;;11.23;7.18;;;5.90;56.20;;;;;;5056818;28;20106;-71
2023/04/27 01:32:11;;;;;;;11.20;7.78;;;5.80;58.00;;;;;;5056907;28;20078;-70
2023/04/27 01:34:37;;;;;;;12.82;8.02;;;6.00;54.30;;;;;;5056156;28;20117;-70
2023/04/27 01:37:03;;;;;;;14.48;8.25;;;6.10;51.10;;;;;;5057272;28;20343;-71
2023/04/27 01:39:28;;;;;;;16.40;7.70;;;6.10;48.90;;;;;;5039546;28;20032;-70
2023/04/27 01:41:54;;;;;;;11.38;7.28;;;6.10;48.40;;;;;;5056042;28;20115;-70
2023/04/27 01:44:22;;;;;;;12.95;7.30;;;5.90;51.60;;;;;;5039414;28;20131;-70
2023/04/27 01:46:48;;;;;;;13.88;7.28;;;5.90;52.20;;;;;;5058844;28;20037;-70
2023/04/27 01:49:14;;;;;;;12.95;7.07;;;5.80;52.80;;;;;;5027134;28;20105;-69
2023/04/27 01:51:40;;;;;;;13.40;7.50;;;5.80;55.50;;;;;;5076840;28;20053;-70
2023/04/27 01:54:06;;;;;;;10.68;7.32;;;5.80;52.80;;;;;;5043441;28;20033;-70
2023/04/27 01:56:32;;;;;;;11.50;7.20;;;5.90;51.00;;;;;;5060080;28;20036;-70
2023/04/27 01:58:58;;;;;;;10.88;7.10;;;5.80;51.80;;;;;;5059839;28;20029;-70
2023/04/27 02:01:23;;;;;;;11.80;6.93;;;5.70;52.60;;;;;;5059885;28;20044;-71
2023/04/27 02:03:49;;;;;;;9.75;6.75;;;5.60;55.40;;;;;;5060456;28;20049;-70
2023/04/27 02:06:16;;;;;;;8.75;6.72;;;5.50;54.80;;;;;;5026947;28;20047;-70
2023/04/27 02:08:41;;;;;;;10.32;6.53;;;5.50;56.20;;;;;;5043152;28;20087;-70
2023/04/27 02:11:08;;;;;;;12.20;6.88;;;5.40;57.60;;;;;;5059669;28;20056;-70
2023/04/27 02:13:33;;;;;;;12.20;6.90;;;5.40;59.60;;;;;;5042983;28;20025;-69
2023/04/27 02:16:03;;;;;;;8.95;6.95;;;5.40;61.30;;;;;;5043088;28;20130;-71
2023/04/27 02:18:28;;;;;;;9.95;6.50;;;5.30;59.80;;;;;;5060241;28;20137;-70
2023/04/27 02:20:54;;;;;;;9.07;5.85;;;5.30;63.30;;;;;;5042936;28;20132;-70
2023/04/27 02:23:20;;;;;;;8.75;6.57;;;5.30;62.20;;;;;;5059602;28;20049;-70
2023/04/27 02:25:46;;;;;;;12.27;6.70;;;5.30;64.40;;;;;;5060126;28;20291;-69
2023/04/27 02:28:13;;;;;;;11.23;6.82;;;5.30;63.90;;;;;;5059262;28;20025;-69
2023/04/27 02:30:39;;;;;;;9.90;6.40;;;5.20;63.40;;;;;;5060147;28;20029;-70
2023/04/27 02:33:05;;;;;;;11.73;5.90;;;5.20;67.10;;;;;;5059994;28;20044;-70
2023/04/27 02:35:33;;;;;;;11.13;6.55;;;5.20;66.40;;;;;;5042915;28;20296;-70
2023/04/27 02:37:59;;;;;;;7.75;6.35;;;5.20;64.60;;;;;;5059087;28;20459;-71
2023/04/27 02:40:25;;;;;;;11.02;6.88;;;5.10;68.10;;;;;;5059887;28;20021;-72
2023/04/27 02:42:51;;;;;;;9.50;6.65;;;5.10;67.50;;;;;;5042673;28;20033;-71
2023/04/27 02:45:17;;;;;;;9.40;6.63;;;5.00;69.40;;;;;;5059952;28;20071;-71
2023/04/27 02:47:42;;;;;;;10.20;6.45;;;4.90;70.40;;;;;;5059676;28;20419;-71
2023/04/27 02:50:09;;;;;;;10.40;6.53;;;5.00;70.30;;;;;;5058896;28;20051;-71
2023/04/27 02:52:35;;;;;;;9.10;5.80;;;5.00;71.80;;;;;;5058974;28;20404;-70
2023/04/27 02:55:01;;;;;;;10.00;6.10;;;4.90;73.50;;;;;;5060240;28;20045;-71
2023/04/27 02:57:29;;;;;;;9.40;6.20;;;4.90;72.90;;;;;;5058709;28;20047;-72
2023/04/27 02:59:55;;;;;;;7.53;6.13;;;4.90;73.50;;;;;;5042327;28;20120;-71
2023/04/27 03:02:21;;;;;;;8.07;5.95;;;4.90;75.00;;;;;;5058790;28;20410;-72
2023/04/27 03:04:52;;;;;;;7.15;5.88;;;4.80;75.10;;;;;;5058797;28;20056;-71
2023/04/27 03:07:18;;;;;;;9.75;6.35;;;4.90;76.00;;;;;;5059346;28;20359;-71
2023/04/27 03:09:43;;;;;;;7.85;5.80;;;4.90;77.10;;;;;;5042133;28;20049;-71
2023/04/27 03:12:09;;;;;;;8.43;6.18;;;5.00;74.40;;;;;;5059340;28;20067;-71
2023/04/27 03:14:35;;;;;;;10.57;6.25;;;5.10;69.90;;;;;;5059304;28;20039;-71
2023/04/27 03:17:02;;;;;;;10.93;6.25;;;5.00;72.80;;;;;;5059295;28;20036;-72
2023/04/27 03:19:28;;;;;;;10.30;5.82;;;5.00;72.80;;;;;;5059465;28;20033;-72
2023/04/27 03:21:56;;;;;;;9.80;6.25;;;5.00;74.00;;;;;;5026062;28;20032;-72
2023/04/27 03:24:24;;;;;;;10.82;6.15;;;5.00;71.60;;;;;;5058286;28;20036;-71
2023/04/27 03:26:51;;;;;;;9.13;5.85;;;5.00;73.80;;;;;;5059536;28;20041;-71
2023/04/27 03:29:17;;;;;;;11.57;5.90;;;5.00;74.80;;;;;;5058453;28;20029;-72
2023/04/27 03:31:43;;;;;;;8.75;5.88;;;5.00;73.10;;;;;;5074949;28;20037;-71
2023/04/27 03:34:09;;;;;;;10.18;5.70;;;5.00;73.20;;;;;;5058106;28;20033;-71
2023/04/27 03:36:37;;;;;;;7.85;5.28;;;5.00;72.70;;;;;;5042192;28;20044;-71
2023/04/27 03:39:03;;;;;;;9.00;5.80;;;4.90;73.10;;;;;;5058923;28;20029;-71
2023/04/27 03:41:29;;;;;;;8.75;5.90;;;4.90;73.80;;;;;;5057970;28;20041;-71
2023/04/27 03:43:55;;;;;;;8.00;5.50;;;4.90;76.00;;;;;;5025025;28;20033;-71
2023/04/27 03:46:21;;;;;;;7.65;5.30;;;4.90;75.40;;;;;;5057829;28;20037;-71
2023/04/27 03:48:47;;;;;;;7.43;5.68;;;4.80;77.30;;;;;;5041368;28;20029;-71
2023/04/27 03:51:13;;;;;;;7.50;5.20;;;4.90;75.10;;;;;;5057869;28;20039;-72
2023/04/27 03:53:41;;;;;;;7.68;5.28;;;5.00;73.10;;;;;;5057724;28;20055;-71
2023/04/27 03:56:07;;;;;;;9.23;5.72;;;4.90;71.90;;;;;;5057801;28;20033;-72
2023/04/27 03:58:33;;;;;;;9.73;5.40;;;4.90;74.50;;;;;;5057644;28;20044;-71
2023/04/27 04:01:25;;;;;;;8.45;5.68;;;4.90;74.20;;;;;;5057236;28;20335;-70
2023/04/27 04:03:51;;;;;;;8.23;4.93;;;4.90;71.80;;;;;;5058155;28;20135;-71
2023/04/27 04:06:17;;;;;;;6.35;5.38;;;4.90;72.40;;;;;;5058290;28;20110;-71
2023/04/27 04:08:44;;;;;;;11.13;5.70;;;5.00;67.80;;;;;;5040467;28;20119;-71
2023/04/27 04:11:10;;;;;;;10.00;5.75;;;4.90;72.40;;;;;;5057667;28;20040;-71
2023/04/27 04:13:40;;;;;;;8.70;5.47;;;4.90;73.50;;;;;;5057713;28;20109;-71
2023/04/27 04:16:08;;;;;;;10.82;5.75;;;4.90;73.60;;;;;;5057388;28;20331;-72
2023/04/27 04:18:35;;;;;;;9.95;6.05;;;4.90;72.30;;;;;;5057486;28;20072;-72
2023/04/27 04:21:02;;;;;;;9.93;5.90;;;5.00;71.90;;;;;;5057242;28;20081;-72
2023/04/27 04:23:28;;;;;;;8.60;5.75;;;5.00;71.30;;;;;;5057862;28;20044;-71
2023/04/27 04:25:56;;;;;;;9.43;5.55;;;4.90;71.10;;;;;;5057700;28;20396;-71
2023/04/27 04:28:24;;;;;;;10.20;5.90;;;4.80;72.60;;;;;;5057086;28;20261;-72
2023/04/27 04:30:51;;;;;;;9.25;5.80;;;4.80;74.60;;;;;;5056918;28;20021;-71
2023/04/27 04:33:17;;;;;;;9.82;6.05;;;4.80;75.80;;;;;;5040315;28;20090;-71
2023/04/27 04:35:43;;;;;;;9.73;5.72;;;4.80;74.90;;;;;;5057001;28;20033;-71
2023/04/27 04:38:10;;;;;;;8.25;5.43;;;4.80;77.40;;;;;;5040330;28;20025;-72
2023/04/27 04:40:37;;;;;;;8.80;5.53;;;4.80;78.40;;;;;;5040462;28;20029;-72
2023/04/27 04:43:03;;;;;;;9.55;5.70;;;4.80;76.10;;;;;;5056837;28;20396;-72
2023/04/27 04:45:29;;;;;;;8.98;5.35;;;4.80;79.80;;;;;;5040606;28;20128;-72
2023/04/27 04:47:56;;;;;;;9.68;5.95;;;4.80;79.40;;;;;;5056702;28;20032;-71
2023/04/27 04:50:23;;;;;;;13.95;6.25;;;4.90;74.80;;;;;;5056790;28;20090;-72
2023/04/27 04:52:50;;;;;;;11.70;6.35;;;4.90;76.30;;;;;;5024057;28;20106;-71
2023/04/27 04:55:16;;;;;;;9.85;5.47;;;4.90;76.60;;;;;;5040191;28;20029;-69
2023/04/27 04:57:42;;;;;;;12.98;6.45;;;4.90;75.90;;;;;;5056683;28;20041;-71
2023/04/27 05:00:12;;;;;;;10.43;6.60;;;5.00;76.60;;;;;;5056594;28;20349;-70
2023/04/27 05:02:38;;;;;;;8.65;6.15;;;5.10;73.30;;;;;;5056478;28;20448;-69
2023/04/27 05:05:05;;;;;;;13.48;7.38;;;5.10;70.30;;;;;;5037288;28;20339;-70
2023/04/27 05:07:30;;;;;;;9.25;6.63;;;5.20;70.20;;;;;;5037577;28;20413;-71
2023/04/27 05:09:56;;;;;;;9.48;6.15;;;5.30;68.70;;;;;;5037320;28;20038;-70
2023/04/27 05:12:22;;;;;;;10.50;6.75;;;5.40;63.30;;;;;;5037087;28;20033;-70
2023/04/27 05:14:48;;;;;;;13.20;6.75;;;5.50;64.00;;;;;;5037174;28;20044;-69
2023/04/27 05:17:14;;;;;;;16.65;7.82;;;5.60;59.10;;;;;;5037132;28;20290;-70
2023/04/27 05:19:40;;;;;;;17.08;7.75;;;5.50;62.40;;;;;;5003278;28;20048;-71
2023/04/27 05:22:06;;;;;;;14.40;7.93;;;5.50;63.40;;;;;;5036762;28;20041;-70
2023/04/27 05:24:32;;;;;;;13.60;7.03;;;5.40;64.70;;;;;;5036461;28;20398;-69
2023/04/27 05:26:58;;;;;;;12.82;6.95;;;5.50;64.70;;;;;;5036330;28;20041;-69
2023/04/27 05:29:24;;;;;;;10.15;6.43;;;5.50;67.60;;;;;;5037249;28;20026;-70
2023/04/27 05:31:49;;;;;;;10.45;6.55;;;5.50;66.20;;;;;;5036969;28;20096;-71
2023/04/27 05:34:16;;;;;;;11.18;6.57;;;5.50;65.30;;;;;;5019904;28;20034;-70
2023/04/27 05:36:42;;;;;;;9.75;6.93;;;5.70;63.00;;;;;;5036197;28;20132;-70
2023/04/27 05:39:08;;;;;;;10.43;7.05;;;5.70;60.30;;;;;;5036855;28;20464;-70
2023/04/27 05:41:34;;;;;;;13.98;7.05;;;5.80;60.80;;;;;;5036187;28;20037;-70
2023/04/27 05:43:59;;;;;;;12.73;7.25;;;5.90;58.60;;;;;;5036123;28;20277;-70
2023/04/27 05:46:25;;;;;;;11.85;7.10;;;6.00;56.40;;;;;;5037290;28;20040;-69
2023/04/27 05:48:51;;;;;;;11.80;6.70;;;6.00;53.70;;;;;;5036104;28;20035;-71
2023/04/27 05:51:17;;;;;;;12.00;7.28;;;6.10;52.60;;;;;;5036730;28;20029;-69
2023/04/27 05:53:42;;;;;;;13.52;7.35;;;6.10;48.20;;;;;;5036723;28;20057;-71
2023/04/27 05:56:10;;;;;;;11.10;7.22;;;6.10;48.60;;;;;;5036739;28;20030;-70
2023/04/27 05:58:36;;;;;;;11.98;7.18;;;6.20;47.30;;;;;;5036861;28;20041;-70
2023/04/27 06:01:05;;;;;;;11.35;7.53;;;6.30;44.70;;;;;;5036685;28;20117;-69
2023/04/27 06:03:31;;;;;;;12.98;7.50;;;6.30;45.00;;;;;;5043593;28;20416;-70
2023/04/27 06:05:59;;;;;;;12.50;7.30;;;6.40;47.20;;;;;;5056475;28;20032;-69
2023/04/27 06:08:26;;;;;;;14.60;7.40;;;6.50;43.70;;;;;;5055958;28;20262;-70
2023/04/27 06:10:52;;;;;;;9.52;7.13;;;6.60;39.90;;;;;;5057057;28;20039;-72
2023/04/27 06:13:19;;;;;;;10.98;7.60;;;6.70;37.30;;;;;;5056445;28;20392;-72
2023/04/27 06:15:45;;;;;;;12.45;6.45;;;6.70;35.50;;;;;;5055670;28;20040;-70
2023/04/27 06:18:11;;;;;;;13.50;7.07;;;6.90;35.60;;;;;;5056367;28;20048;-69
2023/04/27 06:20:38;;;;;;;12.75;7.30;;;7.10;24.40;;;;;;5055748;28;20029;-70
2023/04/27 06:23:04;;;;;;;10.77;6.95;;;7.20;20.40;;;;;;5055649;28;20033;-70
2023/04/27 06:25:30;;;;;;;8.98;5.53;;;7.30;15.20;;;;;;5055851;28;20036;-68
2023/04/27 06:27:57;;;;;;;12.18;6.50;;;7.60;44.80;;;;;;5056561;28;20269;-71
2023/04/27 06:30:23;;;;;;;9.25;6.25;;;8.20;1.00;;;;;;5072358;28;20339;-70
2023/04/27 06:32:50;;;;;;;11.75;6.68;;;8.10;1.00;;;;;;5074534;28;20323;-71
2023/04/27 06:35:16;;;;;;;12.38;7.07;;;8.10;1.00;;;;;;5059376;28;20106;-71
2023/04/27 06:37:43;;;;;;;17.58;7.60;;;8.10;1.00;;;;;;5060219;28;20028;-71
2023/04/27 06:40:10;;;;;;;13.55;7.28;;;8.20;1.00;;;;;;5042413;28;20045;-70
2023/04/27 06:42:36;;;;;;;12.05;7.28;;;8.20;1.00;;;;;;5042558;28;20037;-71
2023/04/27 06:45:03;;;;;;;11.95;7.18;;;8.30;1.00;;;;;;5059867;28;20040;-71
2023/04/27 06:47:29;;;;;;;12.30;7.28;;;8.10;1.00;;;;;;5059029;28;20079;-71
2023/04/27 06:49:55;;;;;;;12.23;7.18;;;8.20;1.00;;;;;;5075596;28;20076;-71
2023/04/27 06:52:21;;;;;;;11.57;7.70;;;8.20;1.00;;;;;;5060127;28;20079;-70
2023/04/27 06:54:47;;;;;;;15.15;8.80;;;8.30;1.00;;;;;;5042312;28;20025;-71
2023/04/27 06:57:13;;;;;;;16.02;7.72;;;8.50;1.00;;;;;;5042850;28;20033;-71
2023/04/27 06:59:38;;;;;;;14.20;8.10;;;8.90;1.00;;;;;;5058875;28;20044;-71
2023/04/27 07:02:06;;;;;;;21.58;8.85;;;9.00;1.00;;;;;;5058757;28;20037;-72
2023/04/27 07:04:31;;;;;;;13.43;8.88;;;9.00;1.00;;;;;;5042027;28;20435;-70
2023/04/27 07:06:57;;;;;;;15.32;9.25;;;9.20;1.00;;;;;;5059373;28;20044;-70
2023/04/27 07:09:23;;;;;;;14.27;8.60;;;9.20;1.00;;;;;;5058781;28;20033;-71
2023/04/27 07:11:49;;;;;;;17.45;9.13;;;9.20;1.00;;;;;;5059924;28;20110;-70
2023/04/27 07:14:15;;;;;;;13.93;8.55;;;9.30;1.00;;;;;;5042122;28;20476;-72
2023/04/27 07:16:42;;;;;;;15.80;8.68;;;9.30;1.00;;;;;;5041921;28;20290;-70
2023/04/27 07:19:09;;;;;;;15.60;8.65;;;9.20;1.00;;;;;;5058523;28;20036;-70
2023/04/27 07:21:35;;;;;;;16.58;9.65;;;9.10;1.00;;;;;;5058467;28;20116;-71
2023/04/27 07:24:02;;;;;;;13.75;9.30;;;9.10;1.00;;;;;;5041862;28;20025;-70
2023/04/27 07:26:30;;;;;;;17.05;9.57;;;9.30;1.00;;;;;;5058274;28;20032;-70
2023/04/27 07:28:57;;;;;;;17.38;9.43;;;9.30;1.00;;;;;;5059016;28;20094;-70
2023/04/27 07:31:23;;;;;;;15.50;9.65;;;9.30;1.00;;;;;;5059455;28;20032;-69
2023/04/27 07:33:48;;;;;;;15.73;9.30;;;9.50;1.00;;;;;;5041596;28;20033;-71
2023/04/27 07:36:15;;;;;;;14.10;9.32;;;9.60;1.00;;;;;;5058436;28;20297;-70
2023/04/27 07:38:40;;;;;;;14.40;9.20;;;9.70;1.00;;;;;;5058878;28;20277;-69
2023/04/27 07:41:07;;;;;;;15.77;8.70;;;9.80;1.00;;;;;;5058203;28;20087;-70
2023/04/27 07:43:34;;;;;;;14.25;9.38;;;9.90;1.00;;;;;;5024579;28;20040;-70
2023/04/27 07:46:00;;;;;;;17.73;9.82;;;9.90;1.00;;;;;;5024955;28;20033;-68
2023/04/27 07:48:30;;;;;;;14.45;9.82;;;10.00;1.00;;;;;;5041567;28;20110;-68
2023/04/27 07:50:56;;;;;;;15.90;10.00;;;9.90;1.00;;;;;;5058050;28;20088;-71
2023/04/27 07:53:22;;;;;;;19.20;9.98;;;10.10;1.00;;;;;;5057883;28;20079;-69
2023/04/27 07:55:48;;;;;;;15.48;8.75;;;10.20;1.00;;;;;;5058630;28;20130;-70
2023/04/27 07:58:14;;;;;;;16.25;9.80;;;10.20;1.00;;;;;;5058617;28;20300;-69
2023/04/27 08:00:40;;;;;;;18.50;9.50;;;10.50;1.00;;;;;;5041050;28;20036;-70
2023/04/27 08:03:06;;;;;;;15.70;10.07;;;10.80;1.00;;;;;;5057670;28;20060;-70
2023/04/27 08:05:32;;;;;;;18.52;9.20;;;10.90;1.00;;;;;;5057636;28;20053;-70
2023/04/27 08:07:58;;;;;;;15.93;9.68;;;11.00;1.00;;;;;;5058272;28;20033;-69
2023/04/27 08:10:24;;;;;;;15.73;10.10;;;11.00;1.00;;;;;;5057661;28;20041;-70
2023/04/27 08:12:49;;;;;;;14.80;9.68;;;11.10;1.00;;;;;;5058565;28;20037;-71
2023/04/27 08:15:15;;;;;;;19.38;9.88;;;11.10;1.00;;;;;;5058117;28;20116;-72
2023/04/27 08:17:42;;;;;;;15.13;9.65;;;11.10;1.00;;;;;;5058146;28;20102;-70
2023/04/27 08:20:12;;;;;;;14.95;9.43;;;11.20;1.00;;;;;;5058188;28;20090;-72
2023/04/27 08:22:39;;;;;;;18.48;10.32;;;11.30;1.00;;;;;;5057971;28;20021;-71
2023/04/27 08:25:07;;;;;;;13.43;9.05;;;11.20;1.00;;;;;;5057427;28;20094;-71
2023/04/27 08:27:42;;;;;;;11.43;8.82;;;11.20;1.00;;;;;;5057196;28;20091;-72
2023/04/27 08:30:09;;;;;;;14.70;8.35;;;11.10;1.00;;;;;;5058150;28;20039;-72
2023/04/27 08:32:35;;;;;;;10.95;7.75;;;11.20;1.00;;;;;;5040840;28;20025;-71
2023/04/27 08:35:01;;;;;;;14.07;7.95;;;11.40;1.00;;;;;;5057141;28;20090;-73
2023/04/27 08:37:27;;;;;;;13.38;8.13;;;11.70;1.00;;;;;;5058285;28;20078;-70
2023/04/27 08:39:52;;;;;;;14.80;8.52;;;11.80;99.90;;;;;;5057803;28;20033;-71
2023/04/27 08:42:18;;;;;;;12.00;7.40;;;11.80;99.90;;;;;;5040409;28;20118;-71
2023/04/27 08:44:44;;;;;;;13.13;7.68;;;11.70;99.90;;;;;;5040520;28;20033;-73
2023/04/27 08:47:10;;;;;;;13.90;7.18;;;11.80;99.90;;;;;;5040386;28;20045;-72
2023/04/27 08:49:37;;;;;;;15.88;7.75;;;11.90;1.00;;;;;;5056734;28;20183;-72
2023/04/27 08:52:03;;;;;;;10.80;6.72;;;12.10;1.00;;;;;;5040334;28;20423;-72
2023/04/27 08:54:29;;;;;;;11.57;7.10;;;12.20;1.00;;;;;;5057773;28;20044;-72
2023/04/27 08:56:56;;;;;;;12.77;8.20;;;12.50;1.00;;;;;;5040659;28;20059;-72
2023/04/27 08:59:22;;;;;;;8.80;5.63;;;12.80;1.00;;;;;;5040130;28;20043;-73
2023/04/27 09:01:48;;;;;;;9.23;5.80;;;12.30;60.00;;;;;;5040056;28;20096;-72
2023/04/27 09:04:15;;;;;;;13.27;6.53;;;12.30;99.90;;;;;;5039803;28;20297;-73
2023/04/27 09:06:41;;;;;;;10.68;6.10;;;12.30;1.00;;;;;;5057325;28;20025;-72
2023/04/27 09:09:07;;;;;;;9.02;6.18;;;12.30;1.00;;;;;;5056515;28;20048;-73
2023/04/27 09:11:35;;;;;;;12.43;6.70;;;12.30;1.00;;;;;;5039807;28;20071;-72
2023/04/27 09:14:14;;;;;;;9.13;6.10;;;12.90;1.00;;;;;;5057050;28;20033;-72
2023/04/27 09:16:41;;;;;;;9.98;6.43;;;13.20;45.30;;;;;;5057017;28;20107;-74
2023/04/27 09:19:07;;;;;;;8.15;6.05;;;13.10;84.80;;;;;;5056283;28;20033;-72
2023/04/27 09:21:33;;;;;;;8.07;6.00;;;13.00;61.50;;;;;;5056351;28;20102;-72
2023/04/27 09:24:12;;;;;;;11.85;6.65;;;13.20;1.00;;;;;;5056319;28;20072;-72
2023/04/27 09:26:40;;;;;;;6.70;5.55;;;13.40;1.00;;;;;;5056931;28;20094;-72
2023/04/27 09:29:07;;;;;;;8.00;5.95;;;13.90;95.10;;;;;;5056258;28;20033;-73
2023/04/27 09:31:34;;;;;;;7.20;5.80;;;13.80;1.00;;;;;;5056969;28;20025;-73
2023/04/27 09:34:01;;;;;;;9.65;6.32;;;13.70;1.00;;;;;;5056875;28;20017;-73
2023/04/27 09:36:29;;;;;;;8.88;6.05;;;13.60;99.90;;;;;;5056978;28;20052;-73
2023/04/27 09:38:55;;;;;;;9.88;6.20;;;13.60;1.00;;;;;;5057247;28;20055;-72
2023/04/27 09:41:21;;;;;;;10.15;5.55;;;13.90;1.00;;;;;;5057389;28;20040;-72
2023/04/27 09:43:48;;;;;;;9.35;6.15;;;14.00;99.90;;;;;;5056027;28;20128;-72
2023/04/27 09:46:14;;;;;;;10.13;6.45;;;14.00;99.90;;;;;;5056000;28;20036;-73
2023/04/27 09:48:40;;;;;;;9.15;6.60;;;14.30;39.70;;;;;;5056727;28;20104;-73
2023/04/27 09:51:06;;;;;;;11.48;7.22;;;14.50;1.00;;;;;;5056090;28;20029;-73
2023/04/27 09:53:43;;;;;;;11.13;6.60;;;14.50;1.00;;;;;;5056701;28;20147;-72
2023/04/27 09:56:33;;;;;;;9.60;6.25;;;14.50;1.00;;;;;;5057021;28;20090;-72
2023/04/27 09:59:08;;;;;;;9.40;5.90;;;14.30;1.00;;;;;;5056784;28;20052;-74
2023/04/27 10:01:47;;;;;;;9.40;6.40;;;14.10;99.90;;;;;;5056781;28;20021;-71
2023/04/27 10:04:25;;;;;;;9.43;6.15;;;14.00;99.90;;;;;;5055643;28;20412;-73
2023/04/27 10:07:03;;;;;;;11.02;6.57;;;14.20;99.90;;;;;;5056806;28;20041;-72
2023/04/27 10:09:38;;;;;;;10.48;6.00;;;14.20;99.90;;;;;;5059816;28;20060;-73
2023/04/27 10:12:20;;;;;;;10.55;6.43;;;14.70;99.90;;;;;;5060282;28;20029;-71
2023/04/27 10:14:54;;;;;;;11.43;6.35;;;14.40;1.00;;;;;;5059698;28;20037;-72
2023/04/27 10:17:35;;;;;;;8.48;5.70;;;14.70;1.00;;;;;;5060396;28;20025;-72
2023/04/27 10:20:03;;;;;;;9.35;6.13;;;15.00;1.00;;;;;;5059666;28;20040;-73
2023/04/27 10:22:51;;;;;;;7.05;5.72;;;15.00;99.90;;;;;;5059566;28;20178;-73
2023/04/27 10:25:20;;;;;;;11.15;5.45;;;15.20;12.60;;;;;;5059575;28;20069;-73
2023/04/27 10:27:53;;;;;;;9.13;5.35;;;15.10;1.00;;;;;;5060242;28;20102;-72
2023/04/27 10:30:21;;;;;;;7.68;5.63;;;15.00;1.00;;;;;;5060284;28;20033;-73
2023/04/27 10:32:54;;;;;;;12.20;6.25;;;14.90;1.00;;;;;;5059386;28;20033;-73
2023/04/27 10:35:22;;;;;;;9.38;5.88;;;15.10;1.00;;;;;;5060328;28;20052;-72
2023/04/27 10:37:48;;;;;;;10.98;5.82;;;15.20;1.00;;;;;;5059396;28;20389;-73
2023/04/27 10:40:18;;;;;;;8.48;6.05;;;15.30;1.00;;;;;;5060481;28;20032;-72
2023/04/27 10:42:47;;;;;;;8.52;6.65;;;15.40;1.00;;;;;;5059641;28;20083;-73
2023/04/27 10:45:12;;;;;;;9.88;5.95;;;15.60;99.90;;;;;;5059213;28;20031;-73
2023/04/27 10:47:43;;;;;;;12.85;6.35;;;16.10;99.90;;;;;;5042716;28;20037;-72
2023/04/27 10:50:12;;;;;;;8.70;5.63;;;16.10;99.90;;;;;;5060155;28;20029;-73
2023/04/27 10:52:47;;;;;;;8.27;5.95;;;16.20;33.90;;;;;;5059209;28;20124;-73
2023/04/27 10:55:22;;;;;;;8.73;6.00;;;15.60;1.00;;;;;;5059044;28;20104;-73
2023/04/27 10:57:50;;;;;;;11.88;5.72;;;15.50;76.40;;;;;;5058960;28;20029;-73
2023/04/27 11:00:24;;;;;;;9.55;5.78;;;15.50;99.90;;;;;;5042555;28;20029;-73
2023/04/27 11:02:52;;;;;;;6.25;5.32;;;15.90;43.70;;;;;;5059385;28;20082;-73
2023/04/27 11:05:21;;;;;;;5.75;4.40;;;16.20;1.00;;;;;;5042309;28;20033;-73
2023/04/27 11:07:47;;;;;;;6.65;5.38;;;16.50;1.00;;;;;;5058797;28;20060;-73
2023/04/27 11:10:17;;;;;;;8.52;5.88;;;16.80;1.00;;;;;;5042269;28;20025;-74
2023/04/27 11:12:44;;;;;;;8.20;5.57;;;16.60;1.00;;;;;;5058878;28;20060;-73
2023/04/27 11:15:11;;;;;;;6.25;5.00;;;16.70;1.00;;;;;;5059428;28;20075;-73
2023/04/27 11:17:37;;;;;;;5.70;5.00;;;16.80;1.00;;;;;;5041534;28;20033;-73
2023/04/27 11:20:07;;;;;;;7.18;4.80;;;17.40;1.00;;;;;;5058816;28;20086;-73
2023/04/27 11:22:41;;;;;;;6.82;5.38;;;18.00;99.90;;;;;;5042696;28;20025;-72
2023/04/27 11:25:08;;;;;;;7.72;5.10;;;19.20;99.90;;;;;;5058721;28;20036;-74
2023/04/27 11:27:39;;;;;;;7.18;5.90;;;18.70;93.30;;;;;;5058306;28;20120;-73
2023/04/27 11:30:06;;;;;;;6.30;5.70;;;19.10;1.00;;;;;;5058532;28;20033;-72
2023/04/27 11:32:32;;;;;;;7.43;5.50;;;18.40;1.00;;;;;;5058349;28;20072;-72
2023/04/27 11:34:58;;;;;;;6.50;5.15;;;18.40;1.00;;;;;;5041931;28;20342;-73
2023/04/27 11:37:26;;;;;;;8.50;5.97;;;19.30;1.00;;;;;;5058339;28;20132;-71
2023/04/27 11:39:56;;;;;;;5.97;5.00;;;20.50;1.00;;;;;;5059009;28;20021;-73
2023/04/27 11:42:30;;;;;;;5.45;4.95;;;20.50;1.00;;;;;;5058329;28;20126;-73
2023/04/27 11:45:01;;;;;;;6.70;5.07;;;22.70;1.00;;;;;;5041525;28;20033;-72
2023/04/27 11:47:32;;;;;;;6.43;5.35;;;22.60;1.00;;;;;;5058521;28;20063;-73
2023/04/27 11:50:00;;;;;;;6.68;5.20;;;23.50;1.00;;;;;;5058177;28;20422;-72
2023/04/27 11:52:34;;;;;;;7.13;4.80;;;23.20;1.00;;;;;;5058193;28;20316;-72
2023/04/27 11:55:01;;;;;;;5.53;4.60;;;22.50;1.00;;;;;;5058223;28;20028;-73
2023/04/27 11:57:34;;;;;;;5.75;5.00;;;22.70;1.00;;;;;;5041437;28;20296;-70
2023/04/27 12:00:08;;;;;;;6.93;4.82;;;23.70;1.00;;;;;;5058311;28;20040;-72
2023/04/27 12:02:44;;;;;;;5.63;4.88;;;23.10;1.00;;;;;;5058498;28;20303;-72
2023/04/27 12:05:11;;;;;;;6.03;5.32;;;22.20;1.00;;;;;;5058048;28;20045;-74
2023/04/27 12:07:37;;;;;;;4.97;4.32;;;23.00;1.00;;;;;;5057770;28;20277;-73
2023/04/27 12:10:04;;;;;;;5.72;4.78;;;23.80;1.00;;;;;;5058404;28;20039;-73
2023/04/27 12:12:30;;;;;;;4.80;3.90;;;24.50;1.00;;;;;;5041689;28;20029;-73
2023/04/27 12:14:56;;;;;;;6.65;4.57;;;24.90;1.00;;;;;;5024519;28;20021;-73
2023/04/27 12:17:22;;;;;;;7.15;4.68;;;25.40;1.00;;;;;;5041016;28;20079;-74
2023/04/27 12:19:48;;;;;;;6.60;4.80;;;26.00;1.00;;;;;;5058147;28;20036;-73
2023/04/27 12:22:14;;;;;;;5.88;5.25;;;25.20;1.00;;;;;;5057408;28;20037;-73
2023/04/27 12:24:40;;;;;;;5.40;4.90;;;25.50;1.00;;;;;;5057383;28;20101;-71
2023/04/27 12:27:06;;;;;;;6.55;5.15;;;25.20;1.00;;;;;;5057158;28;20037;-73
2023/04/27 12:29:32;;;;;;;7.95;5.20;;;26.20;1.00;;;;;;5040413;28;20095;-72
2023/04/27 12:31:58;;;;;;;5.95;4.57;;;25.60;1.00;;;;;;5057772;28;20056;-72
2023/04/27 12:34:24;;;;;;;6.30;5.28;;;24.50;1.00;;;;;;5057996;28;20041;-72
2023/04/27 12:36:51;;;;;;;5.40;4.80;;;24.90;1.00;;;;;;5057069;28;20028;-72
2023/04/27 12:39:19;;;;;;;6.55;5.28;;;26.00;1.00;;;;;;5058298;28;20311;-73
2023/04/27 12:41:49;;;;;;;6.97;4.80;;;27.00;1.00;;;;;;5057817;28;20037;-71
2023/04/27 12:44:17;;;;;;;6.43;5.30;;;26.50;99.90;;;;;;5057655;28;20040;-72
2023/04/27 12:46:44;;;;;;;5.93;4.70;;;25.80;99.90;;;;;;5056773;28;20025;-72
2023/04/27 12:49:10;;;;;;;6.30;4.30;;;25.60;99.90;;;;;;5057520;28;20024;-72
2023/04/27 12:51:36;;;;;;;5.15;4.65;;;24.90;99.90;;;;;;5057629;28;20048;-72